Fredericksburg, IA

2:31 AM CDT en Septiembre 01, 2014 (GMT -0500)
Waterloo Municipal | Change Station
CLOSE
Current Station
Aeropuerto
Location: Waterloo,
Altura: 873 ft
Estaciones meteorológicas cercanas

Alt 873 ft 42.55 °N, 92.40 °W | Updated 37 minutes ago

Mostly Cloudy
Muy nublado
66 ° F
Sensación térmica 66 ° F
N
12
Viento Variable Viento desde SSE

Hoy
Alta -- | Baja -- ° F
--% Posibilidad de precipitaciones
Ayer
Alta -- | Baja -- ° F
Precip. -- pul
6:33 AM 7:43 PM
Creciente, 38% visible
Presión 29.69 pul
Visibilidad 10.0 Millas
Nubes Muy nublado 9500 ft
Punto de rocío 63 ° F
Humedad 90%
Precipitaciones 0.26 pul
Espesor de la nieve No disponible.
UV 0 de una escala de 12
Polen 8.50 de una escala de 12
Calidad del aire No disponible.
Flu Activity No disponible.
METAR KALO 010654Z AUTO 15010KT 10SM BKN095 19/17 A2971 RMK AO2 PK WND 12031/0617 WSHFT 0541 RAE39 SLP054 P0009 T01890172 $

More Conditions Fewer Conditions

Presión 29.69 pul
Visibilidad 10.0 Millas
Nubes Muy nublado 9500 ft
Punto de rocío 63 ° F
Humedad 90%
Precipitaciones 0.26 pul
Espesor de la nieve No disponible.
UV 0 de una escala de 12
Polen 8.50 de una escala de 12
Calidad del aire No disponible.
Flu Activity No disponible.
METAR KALO 010654Z AUTO 15010KT 10SM BKN095 19/17 A2971 RMK AO2 PK WND 12031/0617 WSHFT 0541 RAE39 SLP054 P0009 T01890172 $

More Conditions Fewer Conditions

10-Day Weather Forecast

Almanac

Astronomía

Sep. 01, 2014 Salida Puesta
Hora real 6:33 AM CDT 7:43 PM CDT
Crepúsculo civil 6:04 AM CDT 8:12 PM CDT
Crepúsculo náutico 5:29 AM CDT 8:47 PM CDT
Crepúsculo astronómico 4:52 AM CDT 9:24 PM CDT
Luna 1:29 PM CDT 11:34 PM CDT
Horas de luz 14h 08m
Horas de luz
13h 10m
Tomorrow will be 2m 48s shorter.
Creciente, 38% of the Moon is Illuminated
Hoy
Creciente
Sep 2
Cuarto creciente
Sep 8
Luna llena
Sep 15
Cuarto menguante
Sep 24
Nueva

Extremos de hoy

Máximos del estado Bajos del estado

Community

WunderPhotos

Upload Photos

1,749,154 ¡fotos cargadas!

Nearby

Grosos de nieve

Estación Profundido Altura
No tenemos constancia de nieve nueva.

Actividad de terremotos

Ciudad Distance Mag. Tiempo y dato
No hay informes recientes de la actividad sísmica.
Magnitud mínima muestra es 2,5.

Temperaturas de aguas costeras

Lugar Temperatura
Sin partes meteorológicos de las estaciones

Estaciones meteorológicas cercanas